Time;durP1;ratioP1;P1;durP2;ratioP2;P2;SDS_P1;SDS_P2;PMS_P1;PMS_P2;Temp;Humidity;BMP_temperature;BMP_pressure;BME280_temperature;BME280_humidity;BME280_pressure;Samples;Min_cycle;Max_cycle;Signal;HPM_P1;HPM_P2
2021/12/08 00:00:36;;;;;;;2.70;2.23;;;;;;;15.71;48.33;95619.38;5006610;28;20226;-83
2021/12/08 00:03:04;;;;;;;2.43;2.23;;;;;;;15.47;48.20;95599.47;4967993;28;20209;-83
2021/12/08 00:05:31;;;;;;;2.47;2.27;;;;;;;13.86;48.02;95286.47;4979526;28;20211;-83
2021/12/08 00:07:58;;;;;;;2.43;2.23;;;;;;;15.94;48.32;95686.59;5000650;28;20206;-83
2021/12/08 00:13:06;;;;;;;2.50;2.30;;;;;;;16.65;48.28;95757.41;4999786;28;20602;-80
2021/12/08 00:15:45;;;;;;;2.33;2.03;;;;;;;16.27;48.43;95769.25;4981041;28;20199;-82
2021/12/08 00:18:14;;;;;;;2.20;2.00;;;;;;;13.47;48.26;95309.06;4983247;28;20207;-82
2021/12/08 00:20:45;;;;;;;1.80;1.70;;;;;;;15.94;48.16;95658.72;4991078;28;20221;-82
2021/12/08 00:23:12;;;;;;;2.60;2.40;;;;;;;15.47;47.99;95558.97;4991803;28;20222;-81
2021/12/08 00:25:39;;;;;;;2.33;1.90;;;;;;;16.46;48.02;95714.75;4979351;28;20207;-80
2021/12/08 00:28:06;;;;;;;3.07;2.33;;;;;;;14.70;48.23;95417.25;5005871;28;20207;-80
2021/12/08 00:30:37;;;;;;;2.40;2.20;;;;;;;12.32;48.08;95024.69;4988453;28;20187;-81
2021/12/08 00:33:04;;;;;;;2.33;2.13;;;;;;;11.57;48.20;94932.13;4961931;28;20219;-82
2021/12/08 00:35:31;;;;;;;2.30;2.10;;;;;;;14.96;48.35;95473.44;4995912;28;20222;-81
2021/12/08 00:38:01;;;;;;;2.53;2.10;;;;;;;15.10;48.17;95566.50;5000728;28;20199;-82
2021/12/08 00:40:29;;;;;;;4.23;2.30;;;;;;;15.29;48.38;95601.53;5000837;28;20590;-82
2021/12/08 00:42:56;;;;;;;2.37;2.17;;;;;;;13.81;48.15;95260.25;4979305;28;20573;-82
2021/12/08 00:45:24;;;;;;;2.37;2.03;;;;;;;18.30;48.21;96011.19;4981825;28;20266;-82
2021/12/08 00:47:51;;;;;;;2.20;2.00;;;;;;;15.43;48.17;95541.16;4985048;28;20270;-82
2021/12/08 00:50:21;;;;;;;2.27;2.03;;;;;;;15.77;48.48;95576.47;4986781;28;20261;-81
2021/12/08 00:52:51;;;;;;;2.57;2.30;;;;;;;15.52;48.47;95511.84;4985988;28;20205;-82
2021/12/08 00:55:18;;;;;;;2.20;2.00;;;;;;;18.16;48.34;96000.78;5006058;28;20260;-81
2021/12/08 00:57:45;;;;;;;2.00;1.80;;;;;;;15.31;48.30;95498.69;4983464;28;20227;-82
2021/12/08 01:00:15;;;;;;;2.07;1.97;;;;;;;15.38;48.50;95490.44;4986748;28;20222;-81
2021/12/08 01:02:43;;;;;;;2.30;2.10;;;;;;;13.62;48.48;95232.91;4966080;28;20262;-82
2021/12/08 01:05:12;;;;;;;1.93;1.83;;;;;;;13.23;48.27;95126.03;4962401;28;20285;-80
2021/12/08 01:07:39;;;;;;;2.30;2.03;;;;;;;16.38;48.30;95660.50;4970999;28;20692;-82
2021/12/08 01:10:08;;;;;;;3.03;2.10;;;;;;;18.02;48.55;95999.66;4966850;28;20211;-81
2021/12/08 01:12:54;;;;;;;2.30;2.07;;;;;;;15.35;48.26;95464.19;4985305;28;20695;-82
2021/12/08 01:15:22;;;;;;;2.00;1.90;;;;;;;17.28;48.38;95780.59;4997875;28;20195;-82
2021/12/08 01:17:49;;;;;;;2.73;1.90;;;;;;;17.12;48.25;95745.63;4978541;28;20223;-82
2021/12/08 01:20:16;;;;;;;2.10;1.90;;;;;;;17.17;48.30;95757.56;4964581;28;20222;-81
2021/12/08 01:22:43;;;;;;;2.93;1.97;;;;;;;14.75;48.27;95384.50;4999389;28;20573;-82
2021/12/08 01:25:16;;;;;;;2.50;2.30;;;;;;;13.57;48.45;95120.91;5003037;28;20206;-79
2021/12/08 01:27:43;;;;;;;2.33;2.10;;;;;;;13.88;48.17;95264.63;4983949;28;20230;-82
2021/12/08 01:30:10;;;;;;;2.20;2.00;;;;;;;12.04;47.94;94922.47;4995205;28;20705;-82
2021/12/08 01:32:37;;;;;;;1.73;1.63;;;;;;;13.23;48.18;95116.78;4994854;28;20598;-82
2021/12/08 01:35:05;;;;;;;2.10;1.93;;;;;;;17.82;48.39;95914.56;4997184;28;20582;-82
2021/12/08 01:37:32;;;;;;;2.60;2.37;;;;;;;13.34;48.38;95153.19;4978464;28;20246;-82
2021/12/08 01:40:03;;;;;;;2.13;1.93;;;;;;;15.56;48.32;95502.59;4992521;28;20222;-82
2021/12/08 01:42:35;;;;;;;2.30;2.10;;;;;;;15.14;48.22;95435.91;4974398;28;20281;-80
2021/12/08 01:47:51;;;;;;;2.20;2.00;;;;;;;18.33;48.34;95970.56;4990444;28;20261;-81
2021/12/08 01:50:17;;;;;;;2.20;2.00;;;;;;;17.57;48.24;95843.84;5002811;28;20277;-83
2021/12/08 01:52:44;;;;;;;1.80;1.70;;;;;;;18.81;48.51;96054.50;4966016;28;20222;-81
2021/12/08 01:55:13;;;;;;;2.40;2.17;;;;;;;17.64;48.61;95858.34;5006543;28;20213;-81
2021/12/08 01:57:42;;;;;;;2.00;1.80;;;;;;;15.64;48.90;95526.41;4995255;28;20286;-84
2021/12/08 02:00:12;;;;;;;2.07;1.87;;;;;;;13.88;48.26;95204.91;4980728;28;20227;-82
2021/12/08 02:02:43;;;;;;;1.80;1.70;;;;;;;13.72;48.24;95189.38;5001713;28;20278;-82
2021/12/08 02:05:09;;;;;;;2.37;2.17;;;;;;;14.97;48.65;95472.63;5014313;28;20203;-82
2021/12/08 02:07:36;;;;;;;2.50;1.90;;;;;;;14.38;48.36;95300.31;4999255;28;20273;-83
2021/12/08 02:10:04;;;;;;;2.30;2.10;;;;;;;14.95;48.16;95467.53;4998360;28;20219;-83
2021/12/08 02:12:35;;;;;;;2.13;1.83;;;;;;;18.23;48.46;95943.25;4999307;28;20203;-82
2021/12/08 02:15:01;;;;;;;2.07;1.90;;;;;;;14.72;48.51;95356.63;5002241;28;20269;-82
2021/12/08 02:17:28;;;;;;;2.37;1.90;;;;;;;16.78;48.30;95675.66;4998515;28;20222;-82
2021/12/08 02:19:55;;;;;;;1.80;1.70;;;;;;;18.32;48.28;95988.34;5000462;28;20203;-83
2021/12/08 02:22:28;;;;;;;2.20;2.00;;;;;;;18.24;47.97;95939.91;4982112;28;20214;-81
2021/12/08 02:24:54;;;;;;;1.93;1.73;;;;;;;16.62;48.55;95635.63;5001570;28;20210;-82
2021/12/08 02:27:21;;;;;;;2.20;2.00;;;;;;;14.55;48.13;95306.59;5000557;28;20253;-84
2021/12/08 02:29:55;;;;;;;2.13;1.80;;;;;;;12.58;48.71;94990.91;5005611;28;20202;-83
2021/12/08 02:48:42;;;;;;;2.10;1.90;;;;;;;17.43;48.35;95758.03;4980654;28;20657;-81
2021/12/08 02:51:08;;;;;;;2.50;2.00;;;;;;;13.71;48.73;95173.38;4965877;28;20261;-83
2021/12/08 02:53:38;;;;;;;2.50;2.20;;;;;;;13.99;48.14;95152.13;4994959;28;20229;-83
2021/12/08 02:56:06;;;;;;;2.10;1.90;;;;;;;13.95;48.39;95141.09;5002327;28;20215;-81
2021/12/08 02:58:39;;;;;;;2.10;1.90;;;;;;;16.78;48.38;95626.63;5013718;28;20616;-83
2021/12/08 03:01:07;;;;;;;2.33;2.10;;;;;;;12.97;48.37;95008.59;4991243;28;20231;-81
2021/12/08 03:03:35;;;;;;;1.93;1.80;;;;;;;15.15;48.26;95438.47;4979435;28;20226;-82
2021/12/08 03:06:02;;;;;;;1.83;1.73;;;;;;;15.14;48.38;95411.47;4994473;28;20222;-82
2021/12/08 03:08:29;;;;;;;1.60;1.50;;;;;;;14.24;47.90;95232.66;5001829;28;20195;-82
2021/12/08 03:10:57;;;;;;;2.00;1.90;;;;;;;12.61;47.84;94950.66;5004387;28;20309;-82
2021/12/08 03:13:41;;;;;;;2.70;1.80;;;;;;;13.75;48.36;95123.84;4997211;28;20545;-82
2021/12/08 03:16:09;;;;;;;2.20;2.00;;;;;;;13.48;48.21;95203.97;4967187;28;20221;-83
2021/12/08 03:18:37;;;;;;;1.97;1.80;;;;;;;17.85;48.30;95886.66;4967265;28;20204;-83
2021/12/08 03:21:06;;;;;;;2.17;1.97;;;;;;;15.76;48.93;95514.00;4999767;28;20222;-82
2021/12/08 03:23:45;;;;;;;1.97;1.87;;;;;;;14.31;48.50;95240.41;4980798;28;20202;-82
2021/12/08 03:26:14;;;;;;;1.97;1.87;;;;;;;12.59;48.25;94967.44;5005098;28;20222;-80
2021/12/08 03:28:56;;;;;;;2.37;2.03;;;;;;;14.91;48.58;95363.75;4989391;28;20253;-82
2021/12/08 03:31:29;;;;;;;2.07;1.70;;;;;;;14.48;48.85;95279.47;4982905;28;20252;-82
2021/12/08 03:33:56;;;;;;;2.00;1.80;;;;;;;17.51;48.52;95798.00;4988398;28;20282;-82
2021/12/08 03:36:22;;;;;;;1.90;1.80;;;;;;;12.32;48.26;94894.59;4999564;28;20229;-82
2021/12/08 03:38:49;;;;;;;1.90;1.77;;;;;;;13.54;48.01;95106.59;4988749;28;20667;-82
2021/12/08 03:41:19;;;;;;;2.10;1.77;;;;;;;15.73;48.79;95530.00;4993474;28;20245;-82
2021/12/08 03:43:46;;;;;;;2.03;1.83;;;;;;;16.51;48.37;95588.94;4983429;28;20195;-82
2021/12/08 03:46:16;;;;;;;1.90;1.80;;;;;;;18.25;48.49;95883.13;4993092;28;20239;-82
2021/12/08 03:48:50;;;;;;;1.80;1.70;;;;;;;15.10;48.57;95424.03;4992929;28;20652;-82
2021/12/08 03:51:19;;;;;;;2.30;1.90;;;;;;;16.87;48.38;95657.22;4976932;28;20257;-83
2021/12/08 03:53:46;;;;;;;1.90;1.80;;;;;;;15.32;48.50;95459.06;4979309;28;20207;-81
2021/12/08 03:56:13;;;;;;;1.97;1.60;;;;;;;14.11;48.36;95258.41;4964318;28;20230;-82
2021/12/08 03:58:42;;;;;;;1.83;1.73;;;;;;;14.10;48.49;95222.19;4996381;28;20207;-83
2021/12/08 04:01:12;;;;;;;1.90;1.80;;;;;;;11.73;48.44;94795.91;4996477;28;20609;-82
2021/12/08 04:03:40;;;;;;;2.17;1.97;;;;;;;14.06;48.43;95164.91;4963943;28;20191;-82
2021/12/08 04:06:25;;;;;;;1.93;1.70;;;;;;;17.55;48.77;95768.44;4977637;28;20223;-83
2021/12/08 04:08:56;;;;;;;1.90;1.80;;;;;;;15.34;49.17;95384.88;5002161;28;20195;-79
2021/12/08 04:11:23;;;;;;;1.93;1.77;;;;;;;18.24;48.68;95899.22;4976026;28;20206;-82
2021/12/08 04:13:55;;;;;;;2.17;1.77;;;;;;;13.88;48.43;95111.50;4965544;28;20232;-81
2021/12/08 04:16:25;;;;;;;1.90;1.80;;;;;;;15.33;48.66;95390.78;4973771;28;20214;-81
2021/12/08 04:18:52;;;;;;;1.80;1.70;;;;;;;13.47;48.49;95054.28;4997838;28;20695;-83
2021/12/08 04:21:19;;;;;;;2.47;1.97;;;;;;;13.83;48.23;95115.59;4995922;28;20211;-82
2021/12/08 04:23:46;;;;;;;1.83;1.73;;;;;;;17.83;48.46;95859.53;4995965;28;20199;-82
2021/12/08 04:26:22;;;;;;;2.17;1.97;;;;;;;15.27;48.38;95399.91;4980512;28;20230;-82
2021/12/08 04:28:49;;;;;;;2.53;2.00;;;;;;;15.58;48.64;95461.34;4980549;28;20265;-82
2021/12/08 04:31:19;;;;;;;2.10;1.90;;;;;;;13.29;48.65;95071.53;5012128;28;20672;-83
2021/12/08 04:33:48;;;;;;;2.20;2.00;;;;;;;14.73;48.53;95318.75;4983274;28;20254;-82
2021/12/08 04:36:16;;;;;;;2.10;1.90;;;;;;;11.65;48.70;94843.53;4988520;28;20230;-83
2021/12/08 04:38:47;;;;;;;2.10;1.93;;;;;;;12.33;48.61;94926.53;4988019;28;20205;-83
2021/12/08 04:41:19;;;;;;;1.70;1.60;;;;;;;15.35;48.64;95421.16;4980170;28;20234;-83
2021/12/08 04:43:58;;;;;;;2.00;1.70;;;;;;;18.07;48.51;95890.44;4999438;28;20202;-82
2021/12/08 04:47:06;;;;;;;1.90;1.73;;;;;;;11.92;48.30;94902.03;4987737;28;20236;-82
2021/12/08 04:51:01;;;;;;;2.23;1.80;;;;;;;14.36;48.64;95304.47;5011511;28;20248;-82
2021/12/08 04:52:59;;;;;;;1.70;1.60;;;;;;;18.27;48.57;95906.03;5014638;28;20212;-83
2021/12/08 05:01:58;;;;;;;1.80;1.70;;;;;;;12.47;47.84;94947.00;4978228;28;20581;-81
2021/12/08 05:07:16;;;;;;;2.00;1.90;;;;;;;13.99;48.50;95200.09;4994234;28;20696;-81
2021/12/08 05:09:52;;;;;;;2.23;2.03;;;;;;;16.80;48.74;95716.25;4978550;28;20203;-82
2021/12/08 05:12:31;;;;;;;2.00;1.80;;;;;;;13.63;48.61;95164.81;4977480;28;20294;-82
2021/12/08 05:15:07;;;;;;;2.17;1.97;;;;;;;15.57;48.87;95512.75;4966834;28;20202;-82
2021/12/08 05:17:57;;;;;;;1.83;1.70;;;;;;;17.58;47.66;95799.81;4974662;28;20322;-83
2021/12/08 05:20:53;;;;;;;2.00;1.90;;;;;;;18.40;47.58;95981.72;4978734;28;20199;-83
2021/12/08 05:23:28;;;;;;;2.10;1.90;;;;;;;15.12;47.91;95450.19;4984335;28;20200;-83
2021/12/08 05:25:55;;;;;;;4.07;1.90;;;;;;;17.60;48.13;95903.97;4970130;28;20237;-84
2021/12/08 05:28:23;;;;;;;1.87;1.77;;;;;;;14.88;48.00;95444.59;4966099;28;20206;-83
2021/12/08 05:31:11;;;;;;;2.00;1.90;;;;;;;19.31;48.15;96125.81;4985854;28;20194;-83
2021/12/08 05:33:39;;;;;;;1.90;1.77;;;;;;;18.35;48.30;95952.78;5001099;28;20757;-83
2021/12/08 05:36:06;;;;;;;1.70;1.60;;;;;;;17.26;48.37;95790.72;4986234;28;20223;-83
2021/12/08 05:38:34;;;;;;;1.83;1.73;;;;;;;18.41;48.38;95950.38;5003445;28;20203;-84
2021/12/08 05:41:16;;;;;;;1.80;1.70;;;;;;;18.36;48.24;95940.09;4999408;28;20219;-84
2021/12/08 05:43:44;;;;;;;1.63;1.53;;;;;;;19.04;48.37;96053.19;5000333;28;20202;-84
2021/12/08 05:46:11;;;;;;;4.30;1.70;;;;;;;17.30;48.12;95802.69;5000527;28;20238;-84
2021/12/08 05:48:38;;;;;;;2.07;1.80;;;;;;;14.15;48.84;95273.66;4985650;28;20194;-84
2021/12/08 05:51:10;;;;;;;1.73;1.63;;;;;;;18.93;48.36;96036.88;4987694;28;20201;-84
2021/12/08 05:53:39;;;;;;;2.10;1.90;;;;;;;18.04;48.21;95900.56;4992673;28;20195;-84
2021/12/08 05:56:06;;;;;;;1.70;1.60;;;;;;;15.56;48.44;95464.63;4976887;28;20461;-82
2021/12/08 05:58:33;;;;;;;2.00;1.80;;;;;;;17.53;48.33;95790.41;4995453;28;20195;-86
2021/12/08 06:01:11;;;;;;;2.10;1.87;;;;;;;17.27;48.21;95748.44;4997494;28;20229;-83
2021/12/08 06:03:39;;;;;;;1.60;1.50;;;;;;;19.51;48.52;96123.59;4976929;28;20206;-84
2021/12/08 06:06:08;;;;;;;1.80;1.70;;;;;;;18.54;48.34;95955.69;4976333;28;20262;-83
2021/12/08 06:08:35;;;;;;;2.03;1.80;;;;;;;18.06;48.22;95886.19;4977428;28;20241;-85
2021/12/08 06:11:03;;;;;;;1.80;1.70;;;;;;;19.13;48.11;96082.16;4973427;28;20200;-84
2021/12/08 06:13:29;;;;;;;2.13;1.93;;;;;;;18.39;48.22;95957.13;4993105;28;20250;-83
2021/12/08 06:15:59;;;;;;;2.07;1.80;;;;;;;18.55;48.33;95979.41;4980667;28;20600;-83
2021/12/08 06:18:36;;;;;;;1.93;1.70;;;;;;;18.14;48.52;95910.91;4996518;28;20381;-83
2021/12/08 06:21:12;;;;;;;1.70;1.60;;;;;;;16.84;48.29;95683.38;4981925;28;20300;-83
2021/12/08 06:23:39;;;;;;;1.80;1.70;;;;;;;16.21;48.34;95578.22;5011630;28;20237;-84
2021/12/08 06:26:06;;;;;;;2.00;1.80;;;;;;;16.65;48.46;95638.22;5011425;28;20234;-87
2021/12/08 06:28:32;;;;;;;1.87;1.67;;;;;;;18.37;48.39;95918.94;4989196;28;20329;-84
2021/12/08 06:30:59;;;;;;;1.77;1.60;;;;;;;18.34;48.46;95916.31;4997900;28;20203;-84
2021/12/08 06:33:26;;;;;;;2.10;1.90;;;;;;;19.51;48.41;96103.19;4976535;28;20217;-83
2021/12/08 06:35:59;;;;;;;1.60;1.50;;;;;;;18.15;48.27;95869.41;4976490;28;20669;-84
2021/12/08 06:38:27;;;;;;;1.70;1.60;;;;;;;19.25;48.27;96071.34;4992685;28;20229;-82
2021/12/08 06:41:04;;;;;;;1.67;1.57;;;;;;;18.64;48.42;95960.09;4977164;28;20202;-83
2021/12/08 06:43:34;;;;;;;2.37;2.17;;;;;;;15.59;48.34;95457.97;4992378;28;20198;-83
2021/12/08 06:46:02;;;;;;;1.90;1.60;;;;;;;16.81;48.34;95639.38;4993887;28;20238;-84
2021/12/08 06:48:32;;;;;;;2.30;1.93;;;;;;;17.31;48.56;95733.28;4989111;28;20503;-83
2021/12/08 06:51:11;;;;;;;2.23;1.70;;;;;;;17.78;48.38;95811.19;4974526;28;20267;-86
2021/12/08 06:53:38;;;;;;;2.07;1.80;;;;;;;17.44;48.48;95742.03;4995029;28;20194;-84
2021/12/08 06:56:39;;;;;;;1.93;1.63;;;;;;;19.59;48.42;96105.00;5014440;28;20694;-83
2021/12/08 06:59:09;;;;;;;1.80;1.70;;;;;;;19.54;48.38;96108.34;5007933;28;20275;-84
2021/12/08 07:01:58;;;;;;;2.43;2.00;;;;;;;16.19;48.42;95559.56;4999081;28;20230;-83
2021/12/08 07:04:54;;;;;;;2.00;1.90;;;;;;;17.61;48.26;95773.59;4989444;28;20282;-85
2021/12/08 07:07:26;;;;;;;3.40;1.90;;;;;;;17.43;48.19;95741.16;4998632;28;20218;-84
2021/12/08 07:10:04;;;;;;;3.00;2.17;;;;;;;18.65;48.50;95958.41;5001464;28;20206;-83
2021/12/08 07:12:51;;;;;;;2.13;1.80;;;;;;;17.27;48.23;95716.31;4984308;28;20217;-85
2021/12/08 07:15:25;;;;;;;1.80;1.70;;;;;;;18.98;48.47;95997.94;5002034;28;20179;-84
2021/12/08 07:17:59;;;;;;;2.30;1.70;;;;;;;19.11;48.57;96038.03;4984550;28;20256;-84
2021/12/08 07:20:50;;;;;;;2.00;1.80;;;;;;;19.22;48.67;96051.75;4978451;28;20653;-84
2021/12/08 07:23:21;;;;;;;7.53;2.53;;;;;;;19.61;48.76;96088.06;5006309;28;20214;-82
2021/12/08 07:25:49;;;;;;;5.57;2.20;;;;;;;19.14;48.69;96014.28;5014428;28;20187;-84
2021/12/08 07:28:16;;;;;;;4.80;2.20;;;;;;;18.91;48.81;95974.91;4998388;28;20298;-83
2021/12/08 07:30:51;;;;;;;2.87;2.30;;;;;;;18.95;48.87;95980.06;4997072;28;20637;-84
2021/12/08 07:33:18;;;;;;;6.30;2.20;;;;;;;19.09;48.70;96005.72;5014226;28;20182;-83
2021/12/08 07:35:48;;;;;;;6.40;1.97;;;;;;;19.29;48.65;96030.69;5013699;28;20229;-85
2021/12/08 07:38:18;;;;;;;5.30;2.70;;;;;;;19.04;48.35;95995.47;4981807;28;20208;-84
2021/12/08 07:41:01;;;;;;;6.37;3.30;;;;;;;19.14;45.92;96022.81;4997160;28;20256;-82
2021/12/08 07:43:28;;;;;;;5.73;3.53;;;;;;;19.25;43.96;96036.56;4999114;28;20277;-82
2021/12/08 07:46:03;;;;;;;7.20;3.40;;;;;;;19.38;42.66;96069.03;4997185;28;20234;-84
2021/12/08 07:48:38;;;;;;;6.17;3.40;;;;;;;19.31;41.42;96056.19;4998190;28;20285;-84
2021/12/08 07:51:09;;;;;;;4.67;3.73;;;;;;;19.14;40.54;96027.03;4979836;28;20260;-83
2021/12/08 07:53:36;;;;;;;4.50;3.67;;;;;;;18.92;39.49;96008.00;4980505;28;20225;-85
2021/12/08 07:56:05;;;;;;;7.20;4.00;;;;;;;19.37;39.14;96074.09;4973759;28;20247;-85
2021/12/08 07:58:33;;;;;;;6.37;3.83;;;;;;;18.93;38.86;96007.19;4978670;28;20235;-83
2021/12/08 08:01:14;;;;;;;5.60;3.60;;;;;;;19.12;38.23;96039.72;4980279;28;20254;-84
2021/12/08 08:03:41;;;;;;;4.73;3.67;;;;;;;19.01;38.02;96018.34;4989369;28;20278;-83
2021/12/08 08:06:12;;;;;;;7.30;4.07;;;;;;;19.05;37.48;96031.97;4973924;28;20306;-85
2021/12/08 08:08:39;;;;;;;7.97;3.90;;;;;;;19.03;37.17;96031.09;4967250;28;20199;-84
2021/12/08 08:11:12;;;;;;;5.90;3.60;;;;;;;19.19;37.02;96061.91;4988275;28;20290;-85
2021/12/08 08:13:39;;;;;;;7.17;3.93;;;;;;;18.76;36.92;95993.34;4965134;28;20226;-85
2021/12/08 08:16:10;;;;;;;5.03;3.50;;;;;;;19.19;36.58;96072.09;4993138;28;20244;-84
2021/12/08 08:18:40;;;;;;;7.07;3.50;;;;;;;19.38;36.79;96114.00;4977545;28;20265;-85
2021/12/08 08:21:09;;;;;;;6.60;3.53;;;;;;;18.27;37.52;95921.28;4992884;28;20203;-84
2021/12/08 08:23:36;;;;;;;7.63;3.97;;;;;;;18.74;38.41;96010.28;4967128;28;20241;-84
2021/12/08 08:26:05;;;;;;;5.77;3.37;;;;;;;18.76;38.99;96016.25;4995286;28;20730;-84
2021/12/08 08:28:32;;;;;;;3.40;3.00;;;;;;;18.81;39.68;96019.72;4971629;28;20293;-84
2021/12/08 08:31:08;;;;;;;5.07;3.77;;;;;;;18.56;40.20;95971.81;4996463;28;20226;-82
2021/12/08 08:33:36;;;;;;;5.70;3.53;;;;;;;18.80;40.65;96007.00;4976273;28;20203;-85
2021/12/08 08:36:09;;;;;;;4.10;3.10;;;;;;;19.09;41.00;96054.09;4984323;28;20664;-82
2021/12/08 08:38:46;;;;;;;7.87;3.30;;;;;;;19.33;41.25;96100.38;4966441;28;20209;-86
2021/12/08 08:41:30;;;;;;;6.10;3.20;;;;;;;19.34;41.62;96104.63;4994362;28;20230;-82
2021/12/08 08:43:58;;;;;;;4.57;2.97;;;;;;;19.17;41.62;96068.69;4993737;28;20183;-84
2021/12/08 08:46:32;;;;;;;7.07;3.50;;;;;;;18.77;41.84;95994.22;4976651;28;20258;-84
2021/12/08 08:49:03;;;;;;;4.20;3.00;;;;;;;19.35;41.86;96099.56;4976896;28;20691;-84
2021/12/08 08:51:34;;;;;;;6.70;3.20;;;;;;;18.66;42.02;95975.38;4976634;28;20187;-85
2021/12/08 08:54:05;;;;;;;5.73;3.33;;;;;;;18.60;42.04;95963.41;4993275;28;20294;-85
2021/12/08 08:56:35;;;;;;;7.63;3.10;;;;;;;18.67;42.19;95970.31;5006110;28;20345;-84
2021/12/08 08:59:06;;;;;;;6.13;3.40;;;;;;;18.20;42.47;95882.19;5012164;28;20222;-85
2021/12/08 09:01:36;;;;;;;3.60;2.93;;;;;;;19.15;42.49;96042.31;5004063;28;20257;-84
2021/12/08 09:04:09;;;;;;;4.17;3.10;;;;;;;19.00;42.69;96014.09;5010183;28;20608;-84
2021/12/08 09:06:38;;;;;;;3.73;2.90;;;;;;;18.73;42.86;95959.34;4996528;28;20712;-85
2021/12/08 09:09:09;;;;;;;3.40;2.73;;;;;;;18.77;42.99;95973.84;5003850;28;20588;-84
2021/12/08 09:11:38;;;;;;;4.60;2.70;;;;;;;18.98;43.04;96012.38;4982251;28;20250;-84
2021/12/08 09:14:09;;;;;;;4.80;3.10;;;;;;;19.37;42.94;96074.97;4975956;28;20231;-85
2021/12/08 09:16:42;;;;;;;6.57;3.30;;;;;;;18.77;43.09;95981.50;4992153;28;20266;-84
2021/12/08 09:19:17;;;;;;;5.33;3.00;;;;;;;18.84;43.35;95991.78;4977070;28;20547;-84
2021/12/08 09:21:57;;;;;;;2.80;2.50;;;;;;;19.39;43.36;96073.28;4960900;28;20187;-84
2021/12/08 09:24:54;;;;;;;3.77;2.73;;;;;;;18.66;43.31;95939.75;4995964;28;20202;-84
2021/12/08 09:27:27;;;;;;;3.73;2.60;;;;;;;18.62;43.41;95922.75;4977685;28;20265;-83
2021/12/08 09:29:58;;;;;;;5.67;2.80;;;;;;;19.06;43.51;96001.44;4975037;28;20302;-83
2021/12/08 09:32:45;;;;;;;3.67;2.70;;;;;;;19.27;43.58;96039.16;4975249;28;20257;-84
2021/12/08 09:35:23;;;;;;;4.10;2.67;;;;;;;19.42;43.77;96054.66;4997773;28;20206;-84
2021/12/08 09:37:56;;;;;;;3.87;2.77;;;;;;;18.68;43.78;95931.28;4997287;28;20218;-86
2021/12/08 09:40:27;;;;;;;3.60;2.67;;;;;;;19.43;43.67;96057.22;4979303;28;20257;-83
2021/12/08 09:42:57;;;;;;;4.13;2.87;;;;;;;18.85;43.72;95959.53;5010722;28;20226;-84
2021/12/08 09:45:43;;;;;;;3.03;2.70;;;;;;;19.14;43.60;96011.75;4994766;28;20747;-83
2021/12/08 09:48:12;;;;;;;7.13;2.77;;;;;;;18.70;43.73;95918.59;4980539;28;20229;-84
2021/12/08 09:50:39;;;;;;;3.13;2.43;;;;;;;18.92;43.87;95954.56;5012213;28;20195;-84
2021/12/08 09:53:06;;;;;;;3.93;2.60;;;;;;;19.08;43.85;95984.53;4980950;28;20191;-83
2021/12/08 09:55:34;;;;;;;4.53;2.53;;;;;;;19.30;44.06;96013.72;4962046;28;20234;-85
2021/12/08 09:58:02;;;;;;;3.10;2.80;;;;;;;18.88;43.87;95945.19;5006574;28;20248;-84
2021/12/08 10:00:32;;;;;;;3.73;2.70;;;;;;;19.02;43.99;95970.84;4990237;28;20206;-84
2021/12/08 10:03:00;;;;;;;2.67;2.27;;;;;;;18.56;44.13;95892.94;4980029;28;20697;-85
2021/12/08 10:05:28;;;;;;;3.80;2.60;;;;;;;18.77;43.97;95918.72;4974455;28;20739;-84
2021/12/08 10:07:55;;;;;;;3.00;2.50;;;;;;;18.89;44.20;95925.69;4974674;28;20290;-82
2021/12/08 10:10:21;;;;;;;3.50;2.60;;;;;;;18.86;43.98;95925.66;4974460;28;20742;-85
2021/12/08 10:12:48;;;;;;;3.57;2.60;;;;;;;19.30;44.16;96001.00;4974967;28;20226;-85
2021/12/08 10:15:17;;;;;;;4.03;2.40;;;;;;;19.25;44.12;95987.31;4974549;28;20234;-85
2021/12/08 10:17:44;;;;;;;3.70;2.50;;;;;;;18.78;44.21;95899.22;4974150;28;20273;-84
2021/12/08 10:20:17;;;;;;;3.67;2.57;;;;;;;18.45;44.33;95838.53;4991189;28;20202;-85
2021/12/08 10:22:47;;;;;;;3.27;2.40;;;;;;;18.95;44.49;95923.22;4974599;28;20226;-86
2021/12/08 10:25:15;;;;;;;3.90;2.63;;;;;;;19.48;44.05;95996.97;4974593;28;20237;-80
2021/12/08 10:28:04;;;;;;;2.77;2.10;;;;;;;19.49;44.30;95985.97;4990812;28;20318;-85
2021/12/08 10:30:32;;;;;;;4.33;2.70;;;;;;;18.85;44.19;95868.78;4975828;28;20282;-85
2021/12/08 10:33:00;;;;;;;3.07;2.20;;;;;;;19.05;44.23;95910.66;4977366;28;20195;-83
2021/12/08 10:35:48;;;;;;;3.67;2.40;;;;;;;19.05;44.08;95912.31;4974348;28;20230;-84
2021/12/08 10:38:16;;;;;;;3.10;2.43;;;;;;;19.12;44.18;95914.09;4975206;28;20668;-85
2021/12/08 10:41:00;;;;;;;3.60;2.33;;;;;;;19.47;44.20;95962.16;4994028;28;20253;-86
2021/12/08 10:43:27;;;;;;;4.53;2.60;;;;;;;19.28;44.48;95922.03;4977650;28;20313;-86
2021/12/08 10:46:04;;;;;;;3.47;2.67;;;;;;;19.48;44.58;95951.13;4979036;28;20716;-86
2021/12/08 10:48:36;;;;;;;3.20;2.37;;;;;;;18.94;44.59;95862.94;4994363;28;20438;-85
2021/12/08 10:56:47;;;;;;;3.17;2.30;;;;;;;18.57;44.63;95797.16;4961440;28;20223;-85
2021/12/08 10:59:14;;;;;;;3.13;2.40;;;;;;;18.49;44.84;95788.56;4959270;28;20601;-81
2021/12/08 11:01:40;;;;;;;2.40;2.20;;;;;;;18.73;44.69;95827.03;4958751;28;20235;-84
2021/12/08 11:04:08;;;;;;;2.60;2.40;;;;;;;19.11;44.62;95889.50;4973969;28;20538;-85
2021/12/08 11:06:36;;;;;;;2.90;2.43;;;;;;;19.49;44.79;95940.13;4958212;28;20223;-85
2021/12/08 11:09:04;;;;;;;2.30;2.10;;;;;;;18.90;44.84;95841.72;4974231;28;20203;-84
2021/12/08 11:11:32;;;;;;;4.37;2.50;;;;;;;18.83;44.70;95832.28;4973708;28;20258;-84
2021/12/08 11:14:04;;;;;;;3.00;2.37;;;;;;;18.91;45.01;95848.50;4967658;28;20697;-84
2021/12/08 11:16:32;;;;;;;3.40;2.70;;;;;;;18.87;44.87;95841.69;4978984;28;20233;-85
2021/12/08 11:19:05;;;;;;;2.77;2.13;;;;;;;19.08;44.82;95876.72;4997547;28;20292;-84
2021/12/08 11:21:37;;;;;;;3.20;2.40;;;;;;;18.87;44.85;95833.19;4981778;28;20230;-85
2021/12/08 11:24:34;;;;;;;3.40;2.50;;;;;;;18.87;44.86;95831.50;4983564;28;20218;-85
2021/12/08 11:27:05;;;;;;;3.00;2.63;;;;;;;19.14;45.00;95886.97;4983252;28;20233;-85
2021/12/08 11:29:34;;;;;;;2.47;2.20;;;;;;;18.70;44.74;95817.69;5013521;28;20213;-86
2021/12/08 11:32:03;;;;;;;3.17;2.67;;;;;;;18.57;44.73;95781.88;4981104;28;20238;-85
2021/12/08 11:34:34;;;;;;;3.03;2.70;;;;;;;18.77;44.86;95819.47;4996935;28;20261;-84
2021/12/08 11:37:01;;;;;;;2.57;2.20;;;;;;;19.45;44.96;95934.97;4981262;28;20233;-85
2021/12/08 11:39:44;;;;;;;2.30;2.10;;;;;;;19.26;44.80;95899.88;5015001;28;20245;-83
2021/12/08 11:42:13;;;;;;;3.00;2.50;;;;;;;19.12;44.85;95875.91;5013288;28;20198;-84
2021/12/08 11:44:45;;;;;;;2.60;2.00;;;;;;;18.82;44.90;95832.25;4980780;28;20228;-84
2021/12/08 11:47:17;;;;;;;3.27;2.53;;;;;;;19.04;45.11;95873.28;4998634;28;20578;-84
2021/12/08 11:49:45;;;;;;;2.70;2.40;;;;;;;19.12;44.85;95874.22;4969086;28;20668;-84
2021/12/08 11:52:15;;;;;;;2.50;2.17;;;;;;;19.33;44.92;95896.63;4994518;28;20195;-84
2021/12/08 11:54:51;;;;;;;2.83;2.27;;;;;;;19.05;45.14;95835.94;5013426;28;20606;-84
2021/12/08 11:57:22;;;;;;;2.93;2.47;;;;;;;19.35;44.76;95872.00;5013488;28;20249;-84
2021/12/08 12:00:10;;;;;;;2.90;2.50;;;;;;;19.51;44.78;95884.91;4998202;28;20214;-85
2021/12/08 12:02:44;;;;;;;2.60;2.40;;;;;;;19.51;44.73;95901.94;5015011;28;20218;-84
2021/12/08 12:05:14;;;;;;;2.73;2.40;;;;;;;19.51;44.96;95884.09;5015076;28;20244;-84
2021/12/08 12:07:41;;;;;;;2.60;2.40;;;;;;;19.29;44.97;95854.09;5013898;28;20222;-84
2021/12/08 12:10:09;;;;;;;2.60;2.40;;;;;;;19.23;45.01;95833.63;5013480;28;20240;-84
2021/12/08 12:12:39;;;;;;;2.50;2.30;;;;;;;18.43;44.99;95702.00;5014413;28;20232;-85
2021/12/08 12:15:10;;;;;;;3.03;2.20;;;;;;;19.50;45.01;95897.66;5014256;28;20228;-83
2021/12/08 12:17:37;;;;;;;2.40;2.20;;;;;;;18.63;45.03;95765.03;5013586;28;20313;-83
2021/12/08 12:20:07;;;;;;;2.67;2.40;;;;;;;19.43;45.00;95885.69;5013337;28;20214;-84
2021/12/08 12:22:45;;;;;;;2.30;2.10;;;;;;;19.50;44.99;95900.19;5012912;28;20665;-84
2021/12/08 12:25:36;;;;;;;2.87;2.50;;;;;;;19.09;45.07;95824.97;4995682;28;20284;-86
2021/12/08 12:28:28;;;;;;;2.90;2.43;;;;;;;19.51;45.12;95891.72;5000649;28;20206;-84
2021/12/08 12:31:19;;;;;;;2.53;2.03;;;;;;;19.51;45.17;95896.81;4987453;28;20210;-84